createdAt,value
2018-09-08T00:01:15.632Z,9.87
2018-09-08T00:03:44.966Z,9.73
2018-09-08T00:06:14.705Z,12.90
2018-09-08T00:08:44.933Z,12.43
2018-09-08T00:11:14.901Z,13.80
2018-09-08T00:13:44.238Z,13.50
2018-09-08T00:16:18.638Z,14.33
2018-09-08T00:18:52.798Z,12.70
2018-09-08T00:21:34.611Z,11.33
2018-09-08T00:24:08.916Z,12.47
2018-09-08T00:26:38.735Z,13.83
2018-09-08T00:29:18.867Z,12.27
2018-09-08T00:31:48.615Z,12.23
2018-09-08T00:34:17.843Z,13.50
2018-09-08T00:36:47.490Z,9.80
2018-09-08T00:39:18.767Z,10.23
2018-09-08T00:41:49.465Z,14.30
2018-09-08T00:44:19.443Z,13.30
2018-09-08T00:46:48.819Z,9.00
2018-09-08T00:49:24.010Z,13.47
2018-09-08T00:52:02.331Z,15.03
2018-09-08T00:57:22.317Z,13.60
2018-09-08T01:00:00.939Z,11.27
2018-09-08T01:02:37.557Z,13.30
2018-09-08T01:10:38.571Z,15.57
2018-09-08T01:13:14.958Z,21.03
2018-09-08T01:15:54.577Z,14.37
2018-09-08T01:18:30.684Z,16.00
2018-09-08T01:21:10.349Z,12.47
2018-09-08T01:23:57.682Z,12.23
2018-09-08T01:26:31.695Z,11.80
2018-09-08T01:29:06.644Z,15.27
2018-09-08T01:34:52.460Z,13.70
2018-09-08T01:40:14.801Z,9.97
2018-09-08T01:42:43.595Z,14.10
2018-09-08T01:45:12.368Z,14.43
2018-09-08T01:47:41.763Z,15.70
2018-09-08T01:50:10.476Z,15.63
2018-09-08T01:52:39.270Z,13.70
2018-09-08T01:55:08.039Z,15.97
2018-09-08T01:57:36.838Z,13.83
2018-09-08T02:00:06.494Z,13.10
2018-09-08T02:02:35.268Z,17.63
2018-09-08T02:05:04.058Z,19.47
2018-09-08T02:07:32.829Z,17.23
2018-09-08T02:10:01.582Z,20.70
2018-09-08T02:12:30.343Z,17.87
2018-09-08T02:14:59.117Z,17.77
2018-09-08T02:17:27.889Z,15.50
2018-09-08T02:19:56.648Z,15.67
2018-09-08T02:22:25.545Z,16.80
2018-09-08T02:24:54.536Z,16.70
2018-09-08T02:27:23.313Z,18.53
2018-09-08T02:29:52.053Z,17.07
2018-09-08T02:32:20.860Z,13.40
2018-09-08T02:34:49.615Z,10.37
2018-09-08T02:37:18.501Z,12.20
2018-09-08T02:39:47.212Z,11.87
2018-09-08T02:42:16.054Z,14.37
2018-09-08T02:44:44.932Z,14.67
2018-09-08T02:47:13.731Z,16.67
2018-09-08T02:49:53.814Z,13.87
2018-09-08T02:52:21.306Z,13.97
2018-09-08T02:54:48.812Z,17.50
2018-09-08T02:57:16.339Z,19.53
2018-09-08T02:59:43.874Z,12.30
2018-09-08T03:02:11.369Z,10.93
2018-09-08T03:04:38.867Z,11.67
2018-09-08T03:07:14.983Z,19.07
2018-09-08T03:09:44.913Z,17.83
2018-09-08T03:12:12.438Z,15.57
2018-09-08T03:14:39.934Z,17.90
2018-09-08T03:17:08.250Z,23.10
2018-09-08T03:19:35.769Z,23.90
2018-09-08T03:22:03.286Z,18.20
2018-09-08T03:24:30.839Z,18.10
2018-09-08T03:26:58.344Z,19.17
2018-09-08T03:29:25.882Z,20.90
2018-09-08T03:31:53.392Z,19.40
2018-09-08T03:34:20.896Z,18.80
2018-09-08T03:36:48.451Z,17.13
2018-09-08T03:39:16.012Z,18.77
2018-09-08T03:41:43.554Z,19.00
2018-09-08T03:44:11.110Z,17.57
2018-09-08T03:46:38.968Z,18.73
2018-09-08T03:49:06.549Z,21.20
2018-09-08T03:51:34.065Z,27.57
2018-09-08T03:54:01.641Z,25.13
2018-09-08T03:56:29.164Z,22.03
2018-09-08T03:58:56.807Z,23.33
2018-09-08T04:01:24.304Z,20.67
2018-09-08T04:03:53.350Z,16.43
2018-09-08T04:06:22.308Z,21.47
2018-09-08T04:08:51.182Z,15.80
2018-09-08T04:11:20.215Z,22.80
2018-09-08T04:13:49.618Z,16.77
2018-09-08T04:16:18.828Z,24.30
2018-09-08T04:18:47.993Z,27.50
2018-09-08T04:21:17.034Z,22.93
2018-09-08T04:23:45.992Z,19.03
2018-09-08T04:26:14.946Z,23.03
2018-09-08T04:28:44.131Z,21.60
2018-09-08T04:31:13.180Z,23.40
2018-09-08T04:33:42.107Z,25.67
2018-09-08T04:36:11.171Z,27.17
2018-09-08T04:38:40.089Z,21.40
2018-09-08T04:41:08.599Z,21.00
2018-09-08T04:43:37.635Z,21.03
2018-09-08T04:46:06.849Z,19.97
2018-09-08T04:48:35.804Z,21.53
2018-09-08T04:51:04.641Z,17.53
2018-09-08T04:53:33.719Z,26.43
2018-09-08T04:56:02.675Z,26.77
2018-09-08T04:58:31.734Z,24.77
2018-09-08T05:01:00.681Z,16.57
2018-09-08T05:03:29.783Z,25.27
2018-09-08T05:05:59.056Z,23.17
2018-09-08T05:08:28.165Z,22.17
2018-09-08T05:10:57.189Z,36.90
2018-09-08T05:13:26.017Z,18.37
2018-09-08T05:15:54.922Z,17.17
2018-09-08T05:18:23.755Z,16.40
2018-09-08T05:20:52.607Z,17.63
2018-09-08T05:23:21.457Z,19.63
2018-09-08T05:25:50.382Z,17.50
2018-09-08T05:28:19.298Z,17.63
2018-09-08T05:30:48.232Z,18.43
2018-09-08T05:33:17.101Z,20.20
2018-09-08T05:35:45.998Z,15.77
2018-09-08T05:38:14.797Z,14.60
2018-09-08T05:40:43.651Z,11.80
2018-09-08T05:43:12.572Z,15.07
2018-09-08T05:45:41.332Z,11.63
2018-09-08T05:48:10.065Z,9.33
2018-09-08T05:50:38.920Z,8.40
2018-09-08T05:53:09.406Z,8.60
2018-09-08T05:55:38.450Z,9.00
2018-09-08T05:58:07.571Z,9.33
2018-09-08T06:00:36.464Z,10.03
2018-09-08T06:03:06.126Z,12.30
2018-09-08T06:05:36.713Z,9.63
2018-09-08T06:08:08.394Z,11.07
2018-09-08T06:10:38.039Z,8.47
2018-09-08T06:13:07.227Z,8.30
2018-09-08T06:15:36.717Z,11.22
2018-09-08T06:18:09.191Z,13.93
2018-09-08T06:20:39.085Z,10.53
2018-09-08T06:23:08.847Z,12.15
2018-09-08T06:25:38.901Z,9.83
2018-09-08T06:28:08.715Z,9.50
2018-09-08T06:30:38.009Z,6.85
2018-09-08T06:33:07.165Z,10.40
2018-09-08T06:35:37.070Z,8.23
2018-09-08T06:38:06.182Z,12.90
2018-09-08T06:40:37.678Z,11.40
2018-09-08T06:43:11.935Z,9.48
2018-09-08T06:45:41.455Z,12.25
2018-09-08T06:48:18.920Z,7.80
2018-09-08T06:50:54.604Z,8.85
2018-09-08T06:53:23.814Z,8.98
2018-09-08T06:55:54.187Z,9.83
2018-09-08T06:58:23.706Z,8.55
2018-09-08T07:00:53.172Z,7.50
2018-09-08T07:03:22.196Z,8.18
2018-09-08T07:05:51.175Z,6.87
2018-09-08T07:08:20.153Z,6.95
2018-09-08T07:10:49.336Z,7.67
2018-09-08T07:13:19.383Z,8.05
2018-09-08T07:15:48.478Z,8.88
2018-09-08T07:18:18.529Z,6.65
2018-09-08T07:20:48.369Z,9.38
2018-09-08T07:23:17.974Z,8.48
2018-09-08T07:25:50.929Z,7.62
2018-09-08T07:28:21.051Z,6.42
2018-09-08T07:30:51.149Z,7.72
2018-09-08T07:33:22.042Z,7.92
2018-09-08T07:35:52.848Z,9.58
2018-09-08T07:38:25.224Z,7.70
2018-09-08T07:40:59.483Z,6.47
2018-09-08T07:43:30.366Z,6.58
2018-09-08T07:46:00.079Z,6.83
2018-09-08T07:48:44.503Z,7.90
2018-09-08T07:51:18.953Z,7.00
2018-09-08T07:56:48.183Z,5.33
2018-09-08T07:59:18.993Z,7.28
2018-09-08T08:01:59.964Z,6.25
2018-09-08T08:04:42.001Z,5.90
2018-09-08T08:07:16.311Z,5.80
2018-09-08T08:09:47.782Z,6.33
2018-09-08T08:12:23.270Z,6.65
2018-09-08T08:14:56.541Z,6.53
2018-09-08T08:20:10.530Z,5.95
2018-09-08T08:22:46.021Z,12.75
2018-09-08T08:25:16.562Z,6.33
2018-09-08T08:27:53.475Z,5.40
2018-09-08T08:30:31.033Z,7.15
2018-09-08T08:33:00.794Z,5.05
2018-09-08T08:35:41.390Z,5.00
2018-09-08T08:38:20.995Z,4.83
2018-09-08T08:41:04.952Z,5.05
2018-09-08T08:46:32.137Z,3.15
2018-09-08T08:49:12.747Z,3.52
2018-09-08T08:54:37.390Z,3.58
2018-09-08T08:57:12.350Z,4.85
2018-09-08T08:59:45.096Z,4.45
2018-09-08T09:02:34.208Z,4.70
2018-09-08T09:05:05.377Z,3.50
2018-09-08T09:07:42.026Z,4.87
2018-09-08T09:10:12.840Z,3.30
2018-09-08T09:12:52.137Z,2.98
2018-09-08T09:15:22.122Z,3.50
2018-09-08T09:17:51.298Z,2.40
2018-09-08T09:20:31.143Z,3.17
2018-09-08T09:25:17.157Z,3.70
2018-09-08T09:27:52.167Z,2.98
2018-09-08T09:30:26.649Z,2.95
2018-09-08T09:32:57.860Z,3.80
2018-09-08T09:35:36.388Z,4.85
2018-09-08T09:38:14.355Z,2.70
2018-09-08T09:40:54.228Z,2.05
2018-09-08T09:43:25.217Z,2.20
2018-09-08T09:45:56.482Z,2.37
2018-09-08T09:48:27.358Z,4.65
2018-09-08T09:51:02.580Z,2.45
2018-09-08T09:53:31.895Z,2.72
2018-09-08T09:56:03.395Z,1.87
2018-09-08T09:58:32.791Z,2.20
2018-09-08T10:01:11.524Z,1.70
2018-09-08T10:03:41.801Z,2.15
2018-09-08T10:06:10.398Z,2.20
2018-09-08T10:08:38.966Z,2.17
2018-09-08T10:11:07.599Z,1.70
2018-09-08T10:13:36.278Z,2.70
2018-09-08T10:16:04.915Z,1.87
2018-09-08T10:18:33.639Z,1.25
2018-09-08T10:21:02.302Z,3.62
2018-09-08T10:23:31.273Z,3.08
2018-09-08T10:25:59.860Z,1.47
2018-09-08T10:28:28.953Z,2.45
2018-09-08T10:30:57.265Z,2.67
2018-09-08T10:33:25.946Z,2.98
2018-09-08T10:35:54.575Z,1.55
2018-09-08T10:38:23.247Z,2.45
2018-09-08T10:40:51.919Z,1.70
2018-09-08T10:43:21.861Z,2.20
2018-09-08T10:45:50.558Z,1.37
2018-09-08T10:48:19.316Z,1.92
2018-09-08T10:50:51.058Z,2.00
2018-09-08T10:53:20.188Z,1.65
2018-09-08T10:55:48.816Z,2.33
2018-09-08T10:58:17.387Z,2.85
2018-09-08T11:00:45.972Z,2.05
2018-09-08T11:03:17.075Z,2.17
2018-09-08T11:05:45.671Z,2.25
2018-09-08T11:08:14.635Z,5.85
2018-09-08T11:10:43.323Z,1.85
2018-09-08T11:13:11.964Z,2.85
2018-09-08T11:15:40.647Z,3.60
2018-09-08T11:18:10.390Z,1.60
2018-09-08T11:20:38.962Z,1.80
2018-09-08T11:23:08.559Z,1.85
2018-09-08T11:25:37.176Z,1.90
2018-09-08T11:28:06.747Z,3.60
2018-09-08T11:30:36.093Z,1.70
2018-09-08T11:33:05.005Z,2.05
2018-09-08T11:35:33.671Z,1.85
2018-09-08T11:38:02.401Z,2.72
2018-09-08T11:40:31.105Z,2.27
2018-09-08T11:42:59.764Z,2.17
2018-09-08T11:45:28.455Z,2.55
2018-09-08T11:47:57.169Z,1.77
2018-09-08T11:50:25.945Z,4.37
2018-09-08T11:52:54.625Z,2.30
2018-09-08T11:55:23.437Z,3.27
2018-09-08T11:57:52.006Z,3.20
2018-09-08T12:00:23.766Z,3.12
2018-09-08T12:02:52.408Z,2.47
2018-09-08T12:05:20.941Z,2.40
2018-09-08T12:07:50.168Z,1.67
2018-09-08T12:10:18.827Z,2.20
2018-09-08T12:12:47.435Z,3.08
2018-09-08T12:15:16.148Z,2.20
2018-09-08T12:17:45.048Z,1.85
2018-09-08T12:20:13.689Z,3.15
2018-09-08T12:22:42.258Z,2.58
2018-09-08T12:25:28.980Z,2.17
2018-09-08T12:27:57.839Z,2.67
2018-09-08T12:30:26.510Z,2.83
2018-09-08T12:32:55.108Z,2.10
2018-09-08T12:35:23.806Z,3.62
2018-09-08T12:37:52.474Z,2.40
2018-09-08T12:40:21.137Z,2.35
2018-09-08T12:42:49.823Z,2.17
2018-09-08T12:45:18.467Z,3.45
2018-09-08T12:47:47.138Z,2.08
2018-09-08T12:50:15.751Z,2.65
2018-09-08T12:52:44.332Z,1.75
2018-09-08T12:55:12.876Z,2.90
2018-09-08T12:57:41.509Z,1.95
2018-09-08T13:00:10.232Z,2.47
2018-09-08T13:02:38.897Z,2.58
2018-09-08T13:05:07.679Z,2.30
2018-09-08T13:07:36.258Z,2.17
2018-09-08T13:10:05.056Z,1.70
2018-09-08T13:12:33.724Z,2.45
2018-09-08T13:15:02.679Z,2.72
2018-09-08T13:17:31.221Z,2.47
2018-09-08T13:19:59.781Z,3.65
2018-09-08T13:22:28.327Z,3.22
2018-09-08T13:24:57.415Z,2.90
2018-09-08T13:27:25.971Z,2.22
2018-09-08T13:29:54.512Z,3.10
2018-09-08T13:32:23.051Z,3.10
2018-09-08T13:34:51.697Z,1.95
2018-09-08T13:37:20.763Z,2.17
2018-09-08T13:39:49.438Z,3.47
2018-09-08T13:42:18.079Z,1.82
2018-09-08T13:44:46.605Z,1.87
2018-09-08T13:47:15.183Z,6.03
2018-09-08T13:49:43.687Z,4.15
2018-09-08T13:52:12.224Z,2.10
2018-09-08T13:54:40.707Z,2.25
2018-09-08T13:57:09.330Z,2.22
2018-09-08T13:59:37.807Z,2.42
2018-09-08T14:02:06.412Z,2.52
2018-09-08T14:04:34.887Z,2.20
2018-09-08T14:07:03.407Z,1.70
2018-09-08T14:09:31.956Z,3.42
2018-09-08T14:12:00.505Z,2.58
2018-09-08T14:14:29.019Z,3.17
2018-09-08T14:16:57.612Z,2.00
2018-09-08T14:19:26.098Z,4.10
2018-09-08T14:21:54.636Z,2.95
2018-09-08T14:24:23.148Z,1.67
2018-09-08T14:26:51.678Z,2.75
2018-09-08T14:29:20.237Z,1.80
2018-09-08T14:31:48.821Z,1.80
2018-09-08T14:34:17.342Z,1.75
2018-09-08T14:36:45.938Z,2.55
2018-09-08T14:39:14.505Z,25.17
2018-09-08T14:41:43.080Z,2.10
2018-09-08T14:44:11.623Z,5.45
2018-09-08T14:46:40.341Z,3.52
2018-09-08T14:49:08.991Z,2.65
2018-09-08T14:51:37.548Z,3.25
2018-09-08T14:54:06.155Z,2.17
2018-09-08T14:56:34.732Z,2.35
2018-09-08T14:59:03.326Z,4.58
2018-09-08T15:01:31.942Z,37.88
2018-09-08T15:04:00.489Z,4.70
2018-09-08T15:06:29.055Z,3.40
2018-09-08T15:08:57.604Z,1.90
2018-09-08T15:11:26.156Z,2.17
2018-09-08T15:13:54.683Z,2.10
2018-09-08T15:16:23.264Z,2.55
2018-09-08T15:18:51.811Z,2.10
2018-09-08T15:21:20.379Z,3.55
2018-09-08T15:23:48.939Z,2.47
2018-09-08T15:26:17.487Z,1.70
2018-09-08T15:28:46.033Z,3.50
2018-09-08T15:31:14.599Z,5.95
2018-09-08T15:33:43.131Z,2.22
2018-09-08T15:36:12.504Z,5.28
2018-09-08T15:38:41.071Z,3.22
2018-09-08T15:41:09.561Z,3.67
2018-09-08T15:43:38.107Z,4.03
2018-09-08T15:46:06.651Z,3.65
2018-09-08T15:48:35.180Z,2.72
2018-09-08T15:51:03.699Z,4.67
2018-09-08T15:53:32.280Z,3.30
2018-09-08T15:56:00.795Z,4.67
2018-09-08T15:58:29.987Z,3.05
2018-09-08T16:00:58.435Z,2.83
2018-09-08T16:03:26.991Z,2.00
2018-09-08T16:05:55.509Z,2.08
2018-09-08T16:08:24.055Z,2.08
2018-09-08T16:10:52.618Z,2.77
2018-09-08T16:13:21.135Z,3.37
2018-09-08T16:15:49.689Z,3.52
2018-09-08T16:18:18.305Z,2.35
2018-09-08T16:20:46.816Z,2.45
2018-09-08T16:23:15.358Z,2.42
2018-09-08T16:25:43.902Z,3.98
2018-09-08T16:28:12.439Z,5.30
2018-09-08T16:30:41.363Z,14.73
2018-09-08T16:33:09.993Z,5.78
2018-09-08T16:35:38.622Z,3.10
2018-09-08T16:38:07.238Z,2.37
2018-09-08T16:40:35.871Z,2.90
2018-09-08T16:43:04.459Z,4.35
2018-09-08T16:45:33.042Z,3.62
2018-09-08T16:48:01.640Z,2.17
2018-09-08T16:50:30.235Z,2.83
2018-09-08T16:52:58.869Z,3.35
2018-09-08T16:55:27.544Z,3.67
2018-09-08T16:57:56.164Z,3.17
2018-09-08T17:00:24.829Z,4.58
2018-09-08T17:02:53.456Z,4.87
2018-09-08T17:05:22.112Z,3.67
2018-09-08T17:07:50.670Z,4.45
2018-09-08T17:10:19.295Z,4.90
2018-09-08T17:12:47.984Z,2.50
2018-09-08T17:15:16.627Z,5.72
2018-09-08T17:17:45.412Z,4.58
2018-09-08T17:20:14.159Z,3.95
2018-09-08T17:22:43.135Z,2.87
2018-09-08T17:25:11.865Z,2.30
2018-09-08T17:27:40.509Z,2.40
2018-09-08T17:30:09.126Z,6.03
2018-09-08T17:32:37.782Z,4.03
2018-09-08T17:35:06.640Z,5.25
2018-09-08T17:37:35.597Z,2.70
2018-09-08T17:40:04.312Z,2.77
2018-09-08T17:42:32.860Z,2.83
2018-09-08T17:45:01.547Z,3.20
2018-09-08T17:47:30.171Z,8.03
2018-09-08T17:49:58.831Z,5.75
2018-09-08T17:52:27.426Z,11.80
2018-09-08T17:54:56.037Z,3.08
2018-09-08T17:57:24.639Z,5.53
2018-09-08T17:59:53.190Z,4.72
2018-09-08T18:02:21.792Z,7.20
2018-09-08T18:04:50.476Z,6.70
2018-09-08T18:07:19.096Z,3.77
2018-09-08T18:09:47.929Z,4.10
2018-09-08T18:12:16.526Z,19.07
2018-09-08T18:14:45.185Z,17.35
2018-09-08T18:17:13.805Z,11.85
2018-09-08T18:19:42.424Z,7.80
2018-09-08T18:22:11.050Z,6.05
2018-09-08T18:24:39.680Z,3.95
2018-09-08T18:27:08.371Z,4.90
2018-09-08T18:29:37.027Z,6.15
2018-09-08T18:32:05.635Z,6.33
2018-09-08T18:34:34.245Z,6.35
2018-09-08T18:37:02.831Z,12.15
2018-09-08T18:39:31.396Z,9.70
2018-09-08T18:41:59.992Z,6.35
2018-09-08T18:44:28.643Z,8.08
2018-09-08T18:46:57.189Z,10.28
2018-09-08T18:49:25.721Z,6.37
2018-09-08T18:51:54.223Z,8.28
2018-09-08T18:54:22.803Z,7.45
2018-09-08T18:56:51.322Z,9.43
2018-09-08T18:59:19.847Z,8.03
2018-09-08T19:01:48.449Z,9.55
2018-09-08T19:04:16.935Z,5.75
2018-09-08T19:06:45.468Z,9.47
2018-09-08T19:09:14.003Z,7.87
2018-09-08T19:11:42.609Z,7.53
2018-09-08T19:14:15.336Z,5.45
2018-09-08T19:16:43.887Z,11.60
2018-09-08T19:19:12.459Z,5.87
2018-09-08T19:21:41.055Z,5.03
2018-09-08T19:25:14.489Z,6.03
2018-09-08T19:27:42.995Z,9.68
2018-09-08T19:30:11.569Z,12.37
2018-09-08T19:32:40.109Z,8.10
2018-09-08T19:35:14.073Z,7.97
2018-09-08T19:37:42.614Z,5.90
2018-09-08T19:40:16.491Z,6.65
2018-09-08T19:42:45.034Z,8.08
2018-09-08T19:45:13.556Z,7.43
2018-09-08T19:47:47.430Z,6.17
2018-09-08T19:50:15.975Z,7.30
2018-09-08T19:52:49.912Z,7.12
2018-09-08T19:55:18.499Z,8.70
2018-09-08T19:57:52.366Z,7.13
2018-09-08T20:00:20.920Z,9.70
2018-09-08T20:02:49.423Z,8.83
2018-09-08T20:05:17.938Z,9.30
2018-09-08T20:07:46.495Z,10.50
2018-09-08T20:10:15.004Z,6.78
2018-09-08T20:12:43.639Z,11.00
2018-09-08T20:15:12.146Z,8.63
2018-09-08T20:17:40.678Z,8.73
2018-09-08T20:20:09.203Z,9.43
2018-09-08T20:22:37.764Z,8.63
2018-09-08T20:25:06.311Z,10.58
2018-09-08T20:27:34.864Z,9.43
2018-09-08T20:30:03.479Z,9.10
2018-09-08T20:32:32.022Z,11.43
2018-09-08T20:35:00.555Z,7.33
2018-09-08T20:37:29.080Z,7.83
2018-09-08T20:39:57.753Z,8.90
2018-09-08T20:42:26.273Z,8.53
2018-09-08T20:44:54.768Z,7.50
2018-09-08T20:47:23.294Z,8.23
2018-09-08T20:49:52.104Z,8.20
2018-09-08T20:52:20.672Z,7.70
2018-09-08T20:54:49.159Z,7.03
2018-09-08T20:57:17.716Z,7.77
2018-09-08T20:59:46.227Z,7.87
2018-09-08T21:02:14.730Z,7.07
2018-09-08T21:04:43.254Z,9.43
2018-09-08T21:07:11.827Z,10.37
2018-09-08T21:09:40.854Z,8.87
2018-09-08T21:12:09.524Z,8.23
2018-09-08T21:15:00.466Z,10.80
2018-09-08T21:17:29.008Z,11.37
2018-09-08T21:19:57.502Z,13.23
2018-09-08T21:22:26.076Z,8.93
2018-09-08T21:24:54.595Z,13.73
2018-09-08T21:27:23.115Z,10.57
2018-09-08T21:29:51.632Z,10.13
2018-09-08T21:32:20.254Z,10.83
2018-09-08T21:34:48.807Z,8.00
2018-09-08T21:37:17.355Z,10.43
2018-09-08T21:39:45.910Z,9.33
2018-09-08T21:42:14.435Z,6.77
2018-09-08T21:44:42.992Z,9.07
2018-09-08T21:47:11.526Z,9.80
2018-09-08T21:49:40.084Z,8.00
2018-09-08T21:52:08.631Z,9.63
2018-09-08T21:54:37.199Z,11.70
2018-09-08T21:57:05.795Z,10.07
2018-09-08T21:59:34.347Z,7.77
2018-09-08T22:02:02.884Z,7.00
2018-09-08T22:04:31.462Z,7.80
2018-09-08T22:07:00.000Z,9.00
2018-09-08T22:09:28.581Z,8.03
2018-09-08T22:11:57.136Z,7.90
2018-09-08T22:14:25.699Z,10.50
2018-09-08T22:16:54.290Z,7.53
2018-09-08T22:19:22.872Z,7.83
2018-09-08T22:21:51.416Z,9.43
2018-09-08T22:24:19.994Z,9.50
2018-09-08T22:26:48.533Z,9.43
2018-09-08T22:29:17.130Z,8.13
2018-09-08T22:31:45.687Z,8.93
2018-09-08T22:34:14.242Z,8.83
2018-09-08T22:36:42.813Z,7.30
2018-09-08T22:39:11.388Z,9.50
2018-09-08T22:41:39.926Z,6.60
2018-09-08T22:44:08.464Z,9.63
2018-09-08T22:46:36.996Z,9.73
2018-09-08T22:49:06.287Z,9.60
2018-09-08T22:51:34.803Z,8.37
2018-09-08T22:54:03.379Z,10.00
2018-09-08T22:56:31.931Z,9.27
2018-09-08T22:59:00.499Z,9.87
2018-09-08T23:01:29.027Z,6.87
2018-09-08T23:03:57.603Z,9.20
2018-09-08T23:06:26.472Z,7.67
2018-09-08T23:08:55.040Z,12.33
2018-09-08T23:11:23.600Z,10.87
2018-09-08T23:13:53.072Z,8.53
2018-09-08T23:16:21.606Z,13.07
2018-09-08T23:18:50.157Z,9.07
2018-09-08T23:21:18.696Z,10.40
2018-09-08T23:23:47.261Z,9.97
2018-09-08T23:26:15.779Z,10.70
2018-09-08T23:28:44.290Z,9.53
2018-09-08T23:31:12.829Z,8.20
2018-09-08T23:33:41.304Z,12.00
2018-09-08T23:36:09.813Z,11.17
2018-09-08T23:38:38.325Z,11.03
2018-09-08T23:41:06.853Z,8.73
2018-09-08T23:43:35.346Z,11.50
2018-09-08T23:46:03.886Z,11.30
2018-09-08T23:48:32.393Z,8.03
2018-09-08T23:51:00.899Z,7.00
2018-09-08T23:53:29.383Z,9.17
2018-09-08T23:55:57.895Z,13.87
2018-09-08T23:58:26.398Z,9.63
